Time;durP1;ratioP1;P1;durP2;ratioP2;P2;SDS_P1;SDS_P2;PMS_P1;PMS_P2;Temp;Humidity;BMP_temperature;BMP_pressure;BME280_temperature;BME280_humidity;BME280_pressure;Samples;Min_cycle;Max_cycle;Signal;HPM_P1;HPM_P2
2022/06/04 00:01:05;;;;;;;19.33;4.55;;;;;;;;;;4960051;28;20057;-63
2022/06/04 00:03:32;;;;;;;16.48;4.30;;;;;;;;;;4974480;28;20120;-63
2022/06/04 00:05:59;;;;;;;25.88;5.00;;;;;;;;;;4959640;28;20021;-63
2022/06/04 00:08:29;;;;;;;19.60;5.03;;;;;;;;;;4958744;28;20349;-63
2022/06/04 00:16:30;;;;;;;23.57;5.77;;;;;;;;;;4982019;28;20044;-65
2022/06/04 00:18:58;;;;;;;23.60;5.60;;;;;;;;;;4961326;28;20793;-62
2022/06/04 00:21:27;;;;;;;23.08;5.63;;;;;;;;;;4961218;28;20135;-61
2022/06/04 00:23:55;;;;;;;22.75;5.32;;;;;;;;;;4979657;28;20032;-62
2022/06/04 00:26:22;;;;;;;18.77;4.50;;;;;;;;;;4977062;28;20382;-63
2022/06/04 00:28:52;;;;;;;18.83;4.38;;;;;;;;;;4981837;28;20037;-70
2022/06/04 00:31:20;;;;;;;20.20;4.97;;;;;;;;;;4978685;28;20041;-69
2022/06/04 00:33:47;;;;;;;20.55;5.07;;;;;;;;;;4977284;28;20033;-70
2022/06/04 00:36:15;;;;;;;20.58;5.03;;;;;;;;;;4962530;28;20030;-68
2022/06/04 00:38:45;;;;;;;21.33;5.07;;;;;;;;;;4959333;28;20376;-70
2022/06/04 00:41:26;;;;;;;18.55;4.75;;;;;;;;;;4978627;28;20029;-69
2022/06/04 00:44:11;;;;;;;24.20;5.18;;;;;;;;;;4956086;28;20092;-70
2022/06/04 00:46:41;;;;;;;24.10;5.00;;;;;;;;;;4955688;28;20064;-69
2022/06/04 00:49:13;;;;;;;21.63;4.35;;;;;;;;;;4977051;28;20037;-69
2022/06/04 00:51:41;;;;;;;25.95;5.45;;;;;;;;;;4965585;28;20041;-70
2022/06/04 00:54:11;;;;;;;20.08;4.40;;;;;;;;;;4966782;28;20286;-70
2022/06/04 00:56:43;;;;;;;20.63;4.32;;;;;;;;;;4992498;28;20061;-71
2022/06/04 00:59:26;;;;;;;19.27;4.10;;;;;;;;;;4989634;28;20117;-70
2022/06/04 01:02:00;;;;;;;16.95;4.18;;;;;;;;;;4979236;28;20485;-69
2022/06/04 01:04:47;;;;;;;18.95;4.20;;;;;;;;;;4993985;28;20034;-70
2022/06/04 01:07:22;;;;;;;20.38;4.70;;;;;;;;;;4978687;28;20038;-70
2022/06/04 01:10:01;;;;;;;22.75;4.63;;;;;;;;;;4994168;28;20424;-70
2022/06/04 01:12:35;;;;;;;20.52;4.78;;;;;;;;;;4989857;28;20034;-69
2022/06/04 01:15:07;;;;;;;17.33;3.95;;;;;;;;;;4978354;28;20521;-70
2022/06/04 01:17:49;;;;;;;18.30;4.40;;;;;;;;;;4990599;28;20856;-69
2022/06/04 01:20:17;;;;;;;18.52;4.53;;;;;;;;;;4980453;28;21273;-70
2022/06/04 01:23:02;;;;;;;19.25;4.28;;;;;;;;;;4992114;28;20547;-70
2022/06/04 01:25:47;;;;;;;20.75;4.78;;;;;;;;;;4995907;28;20029;-71
2022/06/04 01:28:16;;;;;;;19.35;4.63;;;;;;;;;;4993071;28;20034;-70
2022/06/04 01:30:50;;;;;;;17.73;4.30;;;;;;;;;;4976537;28;20130;-70
2022/06/04 01:33:30;;;;;;;21.98;4.55;;;;;;;;;;4980334;28;20531;-70
2022/06/04 01:35:58;;;;;;;22.20;5.03;;;;;;;;;;4998232;28;20033;-70
2022/06/04 01:38:32;;;;;;;19.30;3.95;;;;;;;;;;4998465;28;20040;-71
2022/06/04 01:41:03;;;;;;;20.00;4.47;;;;;;;;;;4993365;28;20537;-70
2022/06/04 01:43:44;;;;;;;25.45;4.50;;;;;;;;;;4974748;28;20040;-70
2022/06/04 01:46:12;;;;;;;22.50;4.90;;;;;;;;;;4995242;28;20021;-70
2022/06/04 01:48:41;;;;;;;21.08;4.53;;;;;;;;;;4994075;28;20034;-72
2022/06/04 01:51:08;;;;;;;19.38;4.60;;;;;;;;;;4992161;28;20782;-70
2022/06/04 01:53:36;;;;;;;19.05;4.00;;;;;;;;;;4994725;28;20080;-71
2022/06/04 01:56:30;;;;;;;21.98;4.72;;;;;;;;;;4992562;28;20056;-72
2022/06/04 01:59:20;;;;;;;17.45;4.10;;;;;;;;;;4976465;28;20092;-71
2022/06/04 02:01:52;;;;;;;21.63;4.47;;;;;;;;;;4957096;28;20076;-70
2022/06/04 02:04:24;;;;;;;19.95;4.28;;;;;;;;;;4957561;28;20640;-70
2022/06/04 02:09:42;;;;;;;16.73;4.00;;;;;;;;;;4976187;28;20052;-69
2022/06/04 02:12:11;;;;;;;19.35;4.10;;;;;;;;;;4978868;28;20018;-71
2022/06/04 02:14:39;;;;;;;17.15;3.88;;;;;;;;;;4978435;28;20423;-70
2022/06/04 02:17:08;;;;;;;19.38;4.20;;;;;;;;;;4977055;28;20030;-72
2022/06/04 02:19:35;;;;;;;15.50;3.60;;;;;;;;;;4973580;28;20060;-69
2022/06/04 02:22:03;;;;;;;14.55;3.05;;;;;;;;;;4978878;28;20137;-70
2022/06/04 02:24:30;;;;;;;12.05;3.00;;;;;;;;;;4973864;28;20053;-70
2022/06/04 02:26:57;;;;;;;14.75;3.30;;;;;;;;;;4981964;28;20060;-70
2022/06/04 02:29:25;;;;;;;11.63;2.85;;;;;;;;;;4993377;28;20535;-69
2022/06/04 02:31:54;;;;;;;15.77;3.17;;;;;;;;;;4976461;28;20030;-70
2022/06/04 02:34:36;;;;;;;13.52;3.35;;;;;;;;;;4977534;28;20038;-70
2022/06/04 02:37:09;;;;;;;21.08;4.15;;;;;;;;;;4979131;28;20041;-70
2022/06/04 02:39:41;;;;;;;18.17;3.70;;;;;;;;;;4974911;28;20769;-70
2022/06/04 02:42:26;;;;;;;18.73;4.25;;;;;;;;;;4980428;28;20323;-70
2022/06/04 02:44:58;;;;;;;18.02;4.20;;;;;;;;;;4977960;28;20030;-70
2022/06/04 02:47:31;;;;;;;17.65;3.95;;;;;;;;;;4972191;28;20056;-71
2022/06/04 02:50:16;;;;;;;19.52;4.32;;;;;;;;;;4977703;28;20034;-71
2022/06/04 02:52:44;;;;;;;19.10;3.83;;;;;;;;;;4973138;28;20032;-69
2022/06/04 02:55:13;;;;;;;16.88;4.00;;;;;;;;;;4983551;28;20393;-70
2022/06/04 02:57:42;;;;;;;13.73;3.72;;;;;;;;;;4988599;28;20262;-69
2022/06/04 03:00:10;;;;;;;19.75;4.55;;;;;;;;;;4977731;28;20030;-69
2022/06/04 03:02:37;;;;;;;18.83;3.92;;;;;;;;;;4974205;28;20048;-69
2022/06/04 03:05:11;;;;;;;15.98;3.30;;;;;;;;;;4995459;28;20022;-70
2022/06/04 03:07:41;;;;;;;14.15;3.60;;;;;;;;;;4996299;28;20064;-69
2022/06/04 03:10:11;;;;;;;13.32;3.50;;;;;;;;;;4983059;28;20542;-68
2022/06/04 03:12:37;;;;;;;16.73;4.10;;;;;;;;;;4994388;28;20034;-70
2022/06/04 03:15:03;;;;;;;17.45;4.07;;;;;;;;;;4994423;28;20133;-69
2022/06/04 03:17:29;;;;;;;18.98;4.10;;;;;;;;;;4992022;28;20037;-69
2022/06/04 03:19:55;;;;;;;;;;;;;;;;;;4981930;28;20773;-69
2022/06/04 03:22:22;;;;;;;14.17;3.90;;;;;;;;;;4998694;28;19940;-71
2022/06/04 03:24:48;;;;;;;15.73;3.47;;;;;;;;;;4997659;28;20022;-70
2022/06/04 03:27:14;;;;;;;15.88;3.75;;;;;;;;;;5000115;28;20026;-69
2022/06/04 03:29:40;;;;;;;16.70;4.03;;;;;;;;;;4993180;28;20027;-69
2022/06/04 03:32:06;;;;;;;;;;;;;;;;;;4995520;28;20034;-69
2022/06/04 03:34:33;;;;;;;18.23;4.20;;;;;;;;;;4993393;28;20346;-68
2022/06/04 03:36:59;;;;;;;15.18;3.58;;;;;;;;;;4985951;28;20041;-69
2022/06/04 03:39:25;;;;;;;;;;;;;;;;;;4975084;28;20223;-70
2022/06/04 03:41:51;;;;;;;21.10;4.22;;;;;;;;;;4981790;28;20215;-70
2022/06/04 03:44:17;;;;;;;17.05;4.22;;;;;;;;;;4995618;28;20391;-70
2022/06/04 03:46:43;;;;;;;;;;;;;;;;;;4993418;28;20056;-70
2022/06/04 03:49:09;;;;;;;15.73;3.78;;;;;;;;;;4996951;28;20000;-69
2022/06/04 03:51:37;;;;;;;18.27;3.85;;;;;;;;;;4988806;28;20030;-69
2022/06/04 03:54:04;;;;;;;14.82;3.40;;;;;;;;;;4992202;28;20333;-70
2022/06/04 03:56:31;;;;;;;16.50;3.70;;;;;;;;;;4984113;28;20053;-69
2022/06/04 03:59:00;;;;;;;17.88;4.20;;;;;;;;;;4979324;28;20034;-71
2022/06/04 04:01:30;;;;;;;20.08;5.05;;;;;;;;;;4993986;28;20475;-70
2022/06/04 04:03:58;;;;;;;14.77;3.88;;;;;;;;;;4998380;28;20104;-68
2022/06/04 04:06:30;;;;;;;19.27;4.80;;;;;;;;;;4997476;28;20564;-71
2022/06/04 04:08:57;;;;;;;16.80;4.40;;;;;;;;;;4983105;28;20025;-69
2022/06/04 04:11:26;;;;;;;19.35;4.13;;;;;;;;;;4995161;28;20030;-69
2022/06/04 04:13:54;;;;;;;17.85;4.53;;;;;;;;;;4994129;28;20029;-71
2022/06/04 04:16:23;;;;;;;17.83;4.65;;;;;;;;;;4994327;28;20025;-70
2022/06/04 04:18:51;;;;;;;13.98;3.80;;;;;;;;;;4993238;28;20470;-71
2022/06/04 04:21:20;;;;;;;19.23;4.45;;;;;;;;;;4997632;28;20052;-71
2022/06/04 04:23:47;;;;;;;22.63;5.00;;;;;;;;;;4994196;28;20490;-70
2022/06/04 04:26:14;;;;;;;25.20;5.03;;;;;;;;;;4994843;28;20029;-69
2022/06/04 04:28:42;;;;;;;15.90;4.68;;;;;;;;;;4989447;28;20517;-69
2022/06/04 04:31:14;;;;;;;22.02;5.10;;;;;;;;;;4997107;28;20501;-70
2022/06/04 04:33:41;;;;;;;16.13;3.97;;;;;;;;;;4996721;28;20536;-71
2022/06/04 04:36:10;;;;;;;14.95;3.97;;;;;;;;;;4991632;28;20077;-69
2022/06/04 04:38:37;;;;;;;15.65;4.07;;;;;;;;;;4976724;28;20053;-69
2022/06/04 04:41:15;;;;;;;14.98;3.38;;;;;;;;;;4993174;28;20056;-69
2022/06/04 04:43:42;;;;;;;11.80;3.20;;;;;;;;;;4987567;28;20943;-70
2022/06/04 04:46:11;;;;;;;11.48;3.15;;;;;;;;;;4995429;28;20478;-72
2022/06/04 04:48:39;;;;;;;12.23;3.20;;;;;;;;;;4990403;28;20056;-71
2022/06/04 04:51:07;;;;;;;14.95;3.80;;;;;;;;;;4994196;28;20140;-70
2022/06/04 04:53:34;;;;;;;14.13;3.20;;;;;;;;;;4994449;28;20095;-70
2022/06/04 04:56:00;;;;;;;15.07;3.45;;;;;;;;;;4980867;28;20507;-71
2022/06/04 04:58:27;;;;;;;13.00;3.08;;;;;;;;;;4974134;28;20551;-71
2022/06/04 05:00:53;;;;;;;15.48;3.50;;;;;;;;;;4980915;28;20368;-71
2022/06/04 05:03:19;;;;;;;14.80;4.10;;;;;;;;;;4995737;28;20494;-70
2022/06/04 05:05:45;;;;;;;;;;;;;;;;;;4990216;28;20026;-70
2022/06/04 05:08:11;;;;;;;17.58;4.68;;;;;;;;;;4979987;28;19916;-69
2022/06/04 05:10:39;;;;;;;16.73;4.60;;;;;;;;;;4979020;28;20075;-70
2022/06/04 05:13:05;;;;;;;15.05;5.18;;;;;;;;;;4998086;28;20064;-70
2022/06/04 05:15:31;;;;;;;13.93;4.50;;;;;;;;;;4992029;28;20353;-70
2022/06/04 05:17:58;;;;;;;17.20;5.38;;;;;;;;;;4994077;28;20033;-70
2022/06/04 05:20:24;;;;;;;15.90;5.45;;;;;;;;;;4997050;28;20483;-70
2022/06/04 05:22:50;;;;;;;18.67;4.70;;;;;;;;;;4995293;28;20151;-70
2022/06/04 05:25:16;;;;;;;15.88;5.10;;;;;;;;;;4980361;28;20021;-69
2022/06/04 05:27:42;;;;;;;14.10;4.55;;;;;;;;;;4976325;28;20029;-69
2022/06/04 05:30:09;;;;;;;15.57;5.03;;;;;;;;;;4977071;28;20017;-71
2022/06/04 05:32:35;;;;;;;14.77;5.18;;;;;;;;;;4994338;28;20712;-70
2022/06/04 05:35:02;;;;;;;16.15;4.80;;;;;;;;;;4985889;28;20016;-69
2022/06/04 05:37:28;;;;;;;18.33;5.57;;;;;;;;;;5002331;28;20033;-63
2022/06/04 05:39:58;;;;;;;14.07;4.15;;;;;;;;;;4982968;28;20041;-63
2022/06/04 05:42:24;;;;;;;14.75;4.75;;;;;;;;;;4976122;28;20034;-62
2022/06/04 05:44:52;;;;;;;14.73;4.30;;;;;;;;;;4979194;28;20151;-63
2022/06/04 05:47:18;;;;;;;16.20;4.80;;;;;;;;;;4976117;28;20038;-62
2022/06/04 05:49:45;;;;;;;16.20;4.72;;;;;;;;;;4990417;28;20976;-64
2022/06/04 05:52:11;;;;;;;13.85;4.55;;;;;;;;;;4977687;28;20033;-62
2022/06/04 05:54:38;;;;;;;16.80;5.20;;;;;;;;;;4993210;28;20033;-62
2022/06/04 05:57:06;;;;;;;13.68;4.00;;;;;;;;;;4996856;28;20512;-62
2022/06/04 05:59:34;;;;;;;10.88;3.63;;;;;;;;;;4988597;28;20518;-63
2022/06/04 06:02:01;;;;;;;15.20;4.10;;;;;;;;;;4993771;28;20053;-63
2022/06/04 06:04:31;;;;;;;12.85;3.92;;;;;;;;;;4989451;28;20038;-62
2022/06/04 06:06:59;;;;;;;9.45;3.03;;;;;;;;;;4976399;28;20053;-63
2022/06/04 06:09:27;;;;;;;15.65;4.20;;;;;;;;;;4990273;28;20038;-62
2022/06/04 06:11:55;;;;;;;14.38;3.63;;;;;;;;;;4993019;28;20026;-63
2022/06/04 06:14:23;;;;;;;11.98;2.95;;;;;;;;;;4992736;28;20132;-63
2022/06/04 06:16:51;;;;;;;18.52;4.13;;;;;;;;;;4972106;28;20037;-63
2022/06/04 06:19:20;;;;;;;13.25;3.45;;;;;;;;;;4991307;28;20304;-62
2022/06/04 06:21:48;;;;;;;13.45;3.75;;;;;;;;;;4987046;28;20481;-63
2022/06/04 06:24:17;;;;;;;13.63;3.38;;;;;;;;;;4993837;28;20061;-63
2022/06/04 06:26:47;;;;;;;20.95;4.20;;;;;;;;;;4991129;28;20498;-63
2022/06/04 06:29:15;;;;;;;12.35;3.20;;;;;;;;;;4994548;28;20025;-63
2022/06/04 06:31:42;;;;;;;14.07;3.55;;;;;;;;;;4991250;28;20025;-63
2022/06/04 06:34:10;;;;;;;13.77;3.50;;;;;;;;;;4971404;28;20416;-63
2022/06/04 06:36:38;;;;;;;14.23;3.72;;;;;;;;;;4972759;28;20045;-64
2022/06/04 06:39:06;;;;;;;16.23;3.55;;;;;;;;;;4975618;28;20041;-64
2022/06/04 06:41:34;;;;;;;14.05;3.50;;;;;;;;;;4974293;28;20063;-64
2022/06/04 06:44:03;;;;;;;17.83;3.63;;;;;;;;;;4978632;28;20052;-62
2022/06/04 06:46:40;;;;;;;13.85;3.00;;;;;;;;;;4991399;28;20365;-62
2022/06/04 06:49:19;;;;;;;12.43;2.80;;;;;;;;;;4978788;28;20025;-62
2022/06/04 06:51:51;;;;;;;10.18;2.78;;;;;;;;;;4995020;28;20451;-62
2022/06/04 06:54:18;;;;;;;13.63;3.40;;;;;;;;;;4998910;28;20041;-64
2022/06/04 06:56:45;;;;;;;13.52;3.45;;;;;;;;;;4979655;28;20140;-62
2022/06/04 06:59:11;;;;;;;14.93;3.50;;;;;;;;;;4993698;28;20522;-62
2022/06/04 07:01:38;;;;;;;12.65;3.45;;;;;;;;;;4991843;28;20025;-64
2022/06/04 07:04:05;;;;;;;15.15;3.33;;;;;;;;;;4998451;28;20029;-62
2022/06/04 07:06:34;;;;;;;15.27;4.00;;;;;;;;;;4976714;28;20070;-62
2022/06/04 07:09:00;;;;;;;12.02;3.47;;;;;;;;;;4981862;28;20436;-62
2022/06/04 07:11:27;;;;;;;11.48;2.90;;;;;;;;;;4978771;28;20475;-65
2022/06/04 07:13:53;;;;;;;11.85;2.63;;;;;;;;;;4996761;28;20037;-61
2022/06/04 07:16:20;;;;;;;14.45;3.83;;;;;;;;;;4980518;28;21131;-64
2022/06/04 07:18:46;;;;;;;14.80;3.50;;;;;;;;;;4991701;28;20694;-62
2022/06/04 07:21:13;;;;;;;22.60;4.00;;;;;;;;;;4993731;28;20033;-65
2022/06/04 07:23:39;;;;;;;11.63;3.13;;;;;;;;;;4993373;28;20025;-62
2022/06/04 07:26:06;;;;;;;17.35;3.45;;;;;;;;;;4997939;28;20464;-63
2022/06/04 07:28:32;;;;;;;13.07;2.90;;;;;;;;;;4976725;28;20488;-63
2022/06/04 07:30:59;;;;;;;14.00;3.38;;;;;;;;;;4978673;28;20850;-62
2022/06/04 07:33:28;;;;;;;13.00;3.60;;;;;;;;;;5004727;28;20064;-69
2022/06/04 07:35:54;;;;;;;11.70;3.45;;;;;;;;;;4997786;28;20258;-70
2022/06/04 07:38:20;;;;;;;15.63;3.50;;;;;;;;;;5000522;28;20257;-71
2022/06/04 07:40:47;;;;;;;16.55;3.65;;;;;;;;;;4997665;28;20029;-71
2022/06/04 07:43:13;;;;;;;10.25;2.92;;;;;;;;;;5000292;28;20033;-71
2022/06/04 07:45:40;;;;;;;14.85;3.10;;;;;;;;;;5007612;28;20018;-63
2022/06/04 07:48:07;;;;;;;12.73;3.20;;;;;;;;;;5000288;28;20445;-63
2022/06/04 07:50:34;;;;;;;11.98;2.72;;;;;;;;;;4995817;28;20215;-63
2022/06/04 07:53:01;;;;;;;10.27;2.85;;;;;;;;;;4998945;28;20036;-62
2022/06/04 07:55:29;;;;;;;14.68;3.40;;;;;;;;;;4992294;28;20052;-62
2022/06/04 07:57:57;;;;;;;13.10;3.50;;;;;;;;;;5001105;28;20026;-62
2022/06/04 08:00:25;;;;;;;10.88;3.10;;;;;;;;;;4984666;28;20480;-63
2022/06/04 08:02:52;;;;;;;17.13;3.95;;;;;;;;;;4984916;28;20029;-63
2022/06/04 08:05:20;;;;;;;12.88;3.75;;;;;;;;;;4993923;28;20057;-63
2022/06/04 08:07:47;;;;;;;14.13;3.50;;;;;;;;;;4991585;28;20077;-63
2022/06/04 08:10:14;;;;;;;14.55;3.33;;;;;;;;;;4997459;28;20525;-63
2022/06/04 08:12:48;;;;;;;14.98;3.20;;;;;;;;;;4973146;28;20117;-62
2022/06/04 08:15:16;;;;;;;10.82;2.83;;;;;;;;;;4992844;28;20060;-64
2022/06/04 08:17:43;;;;;;;13.30;3.13;;;;;;;;;;4991450;28;20033;-62
2022/06/04 08:20:11;;;;;;;11.90;3.30;;;;;;;;;;4993905;28;20083;-62
2022/06/04 08:22:38;;;;;;;13.07;3.83;;;;;;;;;;4975850;28;20033;-63
2022/06/04 08:25:06;;;;;;;15.82;3.75;;;;;;;;;;4980687;28;20030;-63
2022/06/04 08:27:34;;;;;;;14.57;3.50;;;;;;;;;;4962359;28;20025;-65
2022/06/04 08:30:03;;;;;;;16.00;3.42;;;;;;;;;;4985502;28;20033;-64
2022/06/04 08:32:36;;;;;;;16.20;4.40;;;;;;;;;;5002837;28;20049;-71
2022/06/04 08:35:04;;;;;;;11.98;3.80;;;;;;;;;;5006071;28;20060;-72
2022/06/04 08:37:30;;;;;;;23.00;3.70;;;;;;;;;;5003464;28;20383;-71
2022/06/04 08:40:01;;;;;;;14.38;3.95;;;;;;;;;;4990113;28;20581;-71
2022/06/04 08:42:44;;;;;;;17.20;3.90;;;;;;;;;;5003137;28;20052;-71
2022/06/04 08:45:12;;;;;;;16.15;4.25;;;;;;;;;;4992357;28;20068;-72
2022/06/04 08:47:43;;;;;;;18.17;4.22;;;;;;;;;;5004587;28;20517;-70
2022/06/04 08:50:28;;;;;;;14.02;3.58;;;;;;;;;;5006450;28;20114;-70
2022/06/04 08:53:02;;;;;;;21.00;4.10;;;;;;;;;;5005777;28;20754;-72
2022/06/04 08:58:25;;;;;;;18.15;4.80;;;;;;;;;;5004031;28;20040;-70
2022/06/04 09:00:51;;;;;;;14.75;3.75;;;;;;;;;;5001556;28;20033;-70
2022/06/04 09:03:21;;;;;;;12.77;3.47;;;;;;;;;;4997358;28;20497;-71
2022/06/04 09:06:06;;;;;;;21.20;4.30;;;;;;;;;;4953336;28;20689;-71
2022/06/04 09:08:51;;;;;;;20.58;4.03;;;;;;;;;;4960067;28;20079;-72
2022/06/04 09:11:29;;;;;;;17.90;3.92;;;;;;;;;;4966739;28;20587;-70
2022/06/04 09:13:56;;;;;;;13.13;3.33;;;;;;;;;;4968985;28;20033;-72
2022/06/04 09:16:29;;;;;;;15.32;4.07;;;;;;;;;;4960583;28;20044;-72
2022/06/04 09:19:00;;;;;;;17.70;3.88;;;;;;;;;;4957646;28;20749;-62
2022/06/04 09:21:33;;;;;;;17.58;4.10;;;;;;;;;;4949376;28;20136;-62
2022/06/04 09:23:59;;;;;;;18.58;4.05;;;;;;;;;;4961687;28;20619;-63
2022/06/04 09:26:26;;;;;;;20.27;4.07;;;;;;;;;;4965983;28;20029;-63
2022/06/04 09:29:11;;;;;;;18.02;4.03;;;;;;;;;;4949491;28;20117;-63
2022/06/04 09:31:46;;;;;;;21.23;4.97;;;;;;;;;;4933336;28;20563;-71
2022/06/04 09:34:19;;;;;;;15.57;3.67;;;;;;;;;;4950413;28;20030;-70
2022/06/04 09:36:46;;;;;;;16.35;4.13;;;;;;;;;;4944662;28;20148;-71
2022/06/04 09:39:20;;;;;;;23.70;4.40;;;;;;;;;;4935010;28;20037;-71
2022/06/04 09:41:51;;;;;;;14.82;3.85;;;;;;;;;;4985840;28;20034;-64
2022/06/04 09:44:17;;;;;;;19.83;4.38;;;;;;;;;;5006169;28;20040;-63
2022/06/04 09:46:44;;;;;;;25.48;5.57;;;;;;;;;;5003055;28;20033;-62
2022/06/04 09:49:21;;;;;;;19.80;4.82;;;;;;;;;;5008790;28;20129;-63
2022/06/04 09:51:48;;;;;;;15.32;3.53;;;;;;;;;;5009160;28;20048;-68
2022/06/04 09:54:29;;;;;;;19.50;4.57;;;;;;;;;;5005093;28;20037;-63
2022/06/04 09:57:02;;;;;;;14.65;3.60;;;;;;;;;;4960376;28;1378854;-63
2022/06/04 09:59:32;;;;;;;13.48;3.50;;;;;;;;;;5007715;28;20128;-62
2022/06/04 10:02:18;;;;;;;14.55;3.60;;;;;;;;;;5000163;28;20072;-62
2022/06/04 10:04:47;;;;;;;13.82;3.88;;;;;;;;;;4996599;28;20504;-63
2022/06/04 10:07:22;;;;;;;12.68;3.65;;;;;;;;;;5003824;28;20575;-62
2022/06/04 10:09:56;;;;;;;12.65;3.47;;;;;;;;;;4985110;28;20446;-62
2022/06/04 10:15:30;;;;;;;14.65;3.33;;;;;;;;;;4953281;28;20045;-62
2022/06/04 10:18:02;;;;;;;16.40;3.57;;;;;;;;;;5000766;28;20029;-63
2022/06/04 10:20:30;;;;;;;13.65;3.85;;;;;;;;;;4972033;28;20036;-62
2022/06/04 10:22:57;;;;;;;13.10;3.70;;;;;;;;;;4979475;28;20087;-63
2022/06/04 10:25:36;;;;;;;17.05;3.80;;;;;;;;;;4980844;28;20038;-63
2022/06/04 10:28:34;;;;;;;16.98;3.70;;;;;;;;;;5001543;28;20264;-63
2022/06/04 10:31:08;;;;;;;13.75;2.80;;;;;;;;;;4906931;28;20054;-62
2022/06/04 10:33:52;;;;;;;14.18;3.40;;;;;;;;;;4913677;28;20146;-64
2022/06/04 10:36:26;;;;;;;12.45;2.70;;;;;;;;;;4923855;28;20121;-62
2022/06/04 10:38:55;;;;;;;13.35;3.10;;;;;;;;;;4928860;28;20034;-73
2022/06/04 10:41:36;;;;;;;12.77;3.60;;;;;;;;;;4924844;28;20051;-70
2022/06/04 10:44:17;;;;;;;11.63;3.03;;;;;;;;;;4920108;28;20142;-70
2022/06/04 10:47:07;;;;;;;12.98;3.38;;;;;;;;;;4904605;28;20035;-70
2022/06/04 10:49:52;;;;;;;12.75;3.35;;;;;;;;;;4903737;28;20047;-71
2022/06/04 10:52:38;;;;;;;13.50;2.92;;;;;;;;;;4934377;28;20074;-71
2022/06/04 10:55:07;;;;;;;14.88;3.20;;;;;;;;;;4936914;28;20059;-71
2022/06/04 10:57:45;;;;;;;13.43;2.88;;;;;;;;;;4924759;28;20073;-70
2022/06/04 11:00:11;;;;;;;10.80;2.70;;;;;;;;;;4923049;28;20137;-70
2022/06/04 11:02:37;;;;;;;13.13;3.28;;;;;;;;;;4925173;28;20039;-70
2022/06/04 11:05:12;;;;;;;10.45;3.03;;;;;;;;;;4928680;28;20027;-73
2022/06/04 11:07:54;;;;;;;12.57;3.23;;;;;;;;;;4994299;28;20082;-72
2022/06/04 11:10:24;;;;;;;10.93;2.42;;;;;;;;;;5008165;28;20226;-72
2022/06/04 11:12:56;;;;;;;15.63;3.30;;;;;;;;;;5006465;28;20033;-72
2022/06/04 11:15:25;;;;;;;13.50;3.20;;;;;;;;;;5010187;28;20033;-72
2022/06/04 11:17:51;;;;;;;13.68;3.42;;;;;;;;;;4996846;28;20139;-65
2022/06/04 11:20:29;;;;;;;12.73;3.17;;;;;;;;;;5019130;28;20588;-69
2022/06/04 11:23:15;;;;;;;13.77;3.50;;;;;;;;;;5009891;28;20033;-69
2022/06/04 11:25:44;;;;;;;13.95;2.90;;;;;;;;;;5009521;28;20029;-64
2022/06/04 11:28:12;;;;;;;12.32;2.90;;;;;;;;;;4991231;28;20385;-69
2022/06/04 11:31:00;;;;;;;10.82;2.67;;;;;;;;;;4985022;28;20487;-68
2022/06/04 11:33:38;;;;;;;15.45;2.95;;;;;;;;;;5000895;28;20385;-69
2022/06/04 11:36:21;;;;;;;17.08;3.30;;;;;;;;;;5001153;28;20036;-68
2022/06/04 11:38:47;;;;;;;11.43;2.63;;;;;;;;;;5002571;28;20060;-68
2022/06/04 11:41:21;;;;;;;15.88;4.00;;;;;;;;;;5005643;28;20033;-68
2022/06/04 11:44:00;;;;;;;12.63;2.60;;;;;;;;;;4984788;28;20582;-69
2022/06/04 11:46:43;;;;;;;17.88;3.33;;;;;;;;;;5003047;28;20245;-68
2022/06/04 11:49:10;;;;;;;16.77;3.80;;;;;;;;;;5006962;28;20029;-70
2022/06/04 11:51:40;;;;;;;13.65;3.15;;;;;;;;;;5002766;28;20025;-70
2022/06/04 11:54:12;;;;;;;14.02;3.10;;;;;;;;;;5003229;28;20121;-70
2022/06/04 11:56:49;;;;;;;14.02;2.88;;;;;;;;;;4970717;28;20049;-69
2022/06/04 11:59:34;;;;;;;12.55;3.03;;;;;;;;;;4983959;28;20036;-69
2022/06/04 12:02:13;;;;;;;13.30;3.13;;;;;;;;;;4994774;28;20061;-68
2022/06/04 12:05:02;;;;;;;12.25;2.92;;;;;;;;;;4976359;28;20034;-68
2022/06/04 12:07:37;;;;;;;13.43;3.00;;;;;;;;;;4976195;28;20026;-69
2022/06/04 12:10:22;;;;;;;11.05;2.63;;;;;;;;;;4992880;28;20037;-68
2022/06/04 12:12:57;;;;;;;12.07;2.83;;;;;;;;;;4989541;28;20495;-70
2022/06/04 12:15:28;;;;;;;;;;;;;;;;;;4988727;28;20926;-69
2022/06/04 12:18:00;;;;;;;13.32;3.17;;;;;;;;;;4972168;28;19917;-69
2022/06/04 12:26:39;;;;;;;13.52;2.80;;;;;;;;;;4995505;28;20522;-69
2022/06/04 12:29:27;;;;;;;13.48;2.85;;;;;;;;;;4990290;28;20093;-69
2022/06/04 12:32:08;;;;;;;14.20;3.25;;;;;;;;;;4963626;28;20468;-68
2022/06/04 12:34:39;;;;;;;15.68;3.65;;;;;;;;;;4967916;28;20038;-69
2022/06/04 12:37:20;;;;;;;11.95;2.78;;;;;;;;;;4997858;28;20032;-71
2022/06/04 12:39:51;;;;;;;15.43;3.00;;;;;;;;;;4950650;28;20080;-69
2022/06/04 12:42:27;;;;;;;16.92;3.97;;;;;;;;;;4996628;28;20479;-68
2022/06/04 12:45:26;;;;;;;14.77;3.35;;;;;;;;;;4996858;28;20793;-69
2022/06/04 12:47:57;;;;;;;16.70;3.50;;;;;;;;;;4975623;28;20104;-70
2022/06/04 12:50:27;;;;;;;14.55;3.63;;;;;;;;;;4970078;28;20366;-69
2022/06/04 12:53:13;;;;;;;18.33;3.72;;;;;;;;;;4981861;28;20425;-68
2022/06/04 12:55:39;;;;;;;;;;;;;;;;;;4970835;28;20206;-69
2022/06/04 12:58:24;;;;;;;15.30;3.35;;;;;;;;;;4989064;28;19925;-74
2022/06/04 13:00:58;;;;;;;16.15;3.53;;;;;;;;;;4995980;28;20025;-75
2022/06/04 13:03:27;;;;;;;16.17;4.07;;;;;;;;;;5002345;28;20017;-70
2022/06/04 13:06:05;;;;;;;12.10;2.95;;;;;;;;;;4975354;28;20037;-68
2022/06/04 13:08:39;;;;;;;14.20;3.40;;;;;;;;;;4997517;28;20416;-68
2022/06/04 13:11:24;;;;;;;15.43;3.63;;;;;;;;;;4998534;28;20037;-69
2022/06/04 13:13:57;;;;;;;17.83;3.88;;;;;;;;;;4996624;28;20044;-69
2022/06/04 13:16:27;;;;;;;15.80;3.47;;;;;;;;;;5000981;28;20262;-69
2022/06/04 13:19:14;;;;;;;17.60;4.10;;;;;;;;;;4999873;28;20033;-69
2022/06/04 13:21:43;;;;;;;17.35;4.10;;;;;;;;;;4958414;28;20527;-69
2022/06/04 13:24:21;;;;;;;15.18;3.80;;;;;;;;;;5000726;28;20537;-69
2022/06/04 13:26:50;;;;;;;14.18;3.35;;;;;;;;;;4984797;28;20635;-73
2022/06/04 13:29:25;;;;;;;16.50;3.53;;;;;;;;;;4996072;28;20390;-67
2022/06/04 13:31:59;;;;;;;12.07;2.93;;;;;;;;;;4986141;28;20039;-70
2022/06/04 13:34:27;;;;;;;16.77;3.83;;;;;;;;;;4985750;28;20029;-67
2022/06/04 13:37:01;;;;;;;16.70;3.55;;;;;;;;;;4997644;28;20053;-68
2022/06/04 13:39:27;;;;;;;15.73;3.58;;;;;;;;;;4964757;28;20030;-68
2022/06/04 13:42:01;;;;;;;12.82;2.97;;;;;;;;;;4963704;28;20041;-68
2022/06/04 13:44:27;;;;;;;16.17;3.15;;;;;;;;;;4983209;28;20030;-68
2022/06/04 13:47:15;;;;;;;15.80;3.30;;;;;;;;;;4993954;28;20096;-68
2022/06/04 13:49:41;;;;;;;16.50;3.83;;;;;;;;;;4970658;28;20160;-63
2022/06/04 13:52:44;;;;;;;15.68;3.63;;;;;;;;;;4997566;28;20841;-64
2022/06/04 13:55:16;;;;;;;13.68;3.17;;;;;;;;;;4916915;29;20063;-63
2022/06/04 13:57:45;;;;;;;16.63;3.28;;;;;;;;;;4914637;28;20246;-63
2022/06/04 14:00:26;;;;;;;15.45;3.47;;;;;;;;;;4922457;28;20485;-62
2022/06/04 14:03:00;;;;;;;14.77;3.47;;;;;;;;;;4938415;28;20459;-63
2022/06/04 14:05:51;;;;;;;15.85;3.35;;;;;;;;;;4918406;28;20390;-63
2022/06/04 14:08:23;;;;;;;17.02;3.72;;;;;;;;;;4916338;28;20035;-63
2022/06/04 14:11:04;;;;;;;12.80;2.88;;;;;;;;;;4910886;28;20466;-63
2022/06/04 14:13:48;;;;;;;13.63;2.90;;;;;;;;;;4918929;28;20090;-63
2022/06/04 14:16:26;;;;;;;15.60;3.30;;;;;;;;;;4921319;28;20545;-62
2022/06/04 14:19:29;;;;;;;15.27;3.33;;;;;;;;;;4922309;28;20070;-63
2022/06/04 14:22:24;;;;;;;19.98;3.42;;;;;;;;;;4866053;29;20312;-74
2022/06/04 14:25:10;;;;;;;17.13;3.60;;;;;;;;;;4864284;29;20134;-63
2022/06/04 14:27:54;;;;;;;14.05;3.30;;;;;;;;;;4866738;29;20282;-74
2022/06/04 14:30:44;;;;;;;16.48;3.90;;;;;;;;;;4919225;28;20378;-63
2022/06/04 14:33:18;;;;;;;13.45;2.92;;;;;;;;;;4922339;28;20300;-63
2022/06/04 14:35:55;;;;;;;14.20;3.60;;;;;;;;;;4920181;28;22602;-63
2022/06/04 14:38:27;;;;;;;14.77;3.15;;;;;;;;;;4923799;28;20074;-63
2022/06/04 14:41:01;;;;;;;14.00;3.35;;;;;;;;;;4906093;29;20089;-63
2022/06/04 14:43:42;;;;;;;14.23;3.15;;;;;;;;;;4910530;28;20024;-63
2022/06/04 14:46:34;;;;;;;15.25;3.42;;;;;;;;;;4917034;28;20462;-63
2022/06/04 14:49:20;;;;;;;12.93;3.42;;;;;;;;;;4920734;28;20055;-63
2022/06/04 14:52:05;;;;;;;16.40;3.40;;;;;;;;;;4918520;28;20035;-63
2022/06/04 14:54:31;;;;;;;;;;;;;;;;;;4914047;28;20046;-63
2022/06/04 14:57:11;;;;;;;14.23;3.10;;;;;;;;;;4995925;28;19921;-70
2022/06/04 14:59:46;;;;;;;15.25;3.70;;;;;;;;;;4999826;28;20447;-73
2022/06/04 15:02:14;;;;;;;;;;;;;;;;;;5005201;28;20033;-72
2022/06/04 15:04:58;;;;;;;16.05;3.50;;;;;;;;;;4975877;28;19913;-70
2022/06/04 15:07:30;;;;;;;15.45;3.33;;;;;;;;;;4980780;28;20315;-64
2022/06/04 15:09:59;;;;;;;14.30;3.15;;;;;;;;;;4986266;28;20491;-68
2022/06/04 15:12:35;;;;;;;11.65;3.10;;;;;;;;;;4994553;28;20585;-68
2022/06/04 15:15:07;;;;;;;17.80;3.60;;;;;;;;;;4999290;28;20320;-69
2022/06/04 15:17:52;;;;;;;14.23;2.95;;;;;;;;;;4994906;28;20037;-69
2022/06/04 15:20:36;;;;;;;15.25;3.15;;;;;;;;;;4995320;28;20045;-69
2022/06/04 15:23:11;;;;;;;14.80;3.20;;;;;;;;;;4998231;28;20664;-69